Time;durP1;ratioP1;P1;durP2;ratioP2;P2;SDS_P1;SDS_P2;PMS_P1;PMS_P2;Temp;Humidity;BMP_temperature;BMP_pressure;BME280_temperature;BME280_humidity;BME280_pressure;Samples;Min_cycle;Max_cycle;Signal;HPM_P1;HPM_P2
2021/09/12 00:01:47;;;;;;;15.63;13.95;;;;;;;16.39;85.02;99509.00;1752732;80;20952;-62
2021/09/12 00:04:14;;;;;;;13.68;12.28;;;;;;;16.34;85.07;99503.58;1749327;80;20999;-62
2021/09/12 00:06:42;;;;;;;13.68;12.28;;;;;;;16.33;85.09;99508.50;1743541;80;21033;-62
2021/09/12 00:09:09;;;;;;;14.93;13.43;;;;;;;16.33;85.24;99504.55;1746696;80;20975;-62
2021/09/12 00:11:35;;;;;;;15.00;13.50;;;;;;;16.34;85.34;99503.58;1751061;80;20985;-61
2021/09/12 00:14:02;;;;;;;15.18;13.58;;;;;;;16.37;85.38;99506.95;1757765;80;20966;-62
2021/09/12 00:16:29;;;;;;;17.82;13.13;;;;;;;16.38;85.39;99500.71;1756354;80;21484;-61
2021/09/12 00:18:55;;;;;;;17.57;13.68;;;;;;;16.38;85.46;99502.86;1758389;80;21043;-61
2021/09/12 00:21:22;;;;;;;15.10;13.47;;;;;;;16.42;85.51;99502.18;1759993;80;21491;-61
2021/09/12 00:23:48;;;;;;;15.93;14.23;;;;;;;16.41;85.35;99501.80;1751306;80;21594;-62
2021/09/12 00:26:16;;;;;;;15.03;13.43;;;;;;;16.38;85.38;99495.44;1712885;82;20950;-61
2021/09/12 00:28:42;;;;;;;;;;;;;;;16.36;85.34;99498.69;1758089;80;21101;-61
2021/09/12 00:31:09;;;;;;;16.37;13.15;;;;;;;16.30;85.45;99494.23;1752834;80;21878;-61
2021/09/12 00:33:35;;;;;;;13.68;12.25;;;;;;;16.25;85.42;99499.00;1752133;80;20934;-61
2021/09/12 00:36:02;;;;;;;16.52;13.93;;;;;;;16.21;85.41;99497.53;1750392;80;20942;-61
2021/09/12 00:38:29;;;;;;;15.80;14.20;;;;;;;16.17;85.50;99496.09;1755050;80;20990;-61
2021/09/12 00:40:58;;;;;;;17.27;14.18;;;;;;;16.15;85.50;99499.80;1757620;80;20855;-61
2021/09/12 00:43:27;;;;;;;14.35;12.85;;;;;;;16.10;85.52;99497.48;1744678;80;21041;-61
2021/09/12 00:45:57;;;;;;;15.90;12.93;;;;;;;16.08;85.57;99498.09;1695998;80;20939;-61
2021/09/12 00:48:25;;;;;;;16.67;14.07;;;;;;;16.05;85.60;99494.38;1757901;80;20963;-61
2021/09/12 00:50:52;;;;;;;16.50;14.35;;;;;;;16.01;85.64;99497.69;1754871;80;22022;-61
2021/09/12 00:53:21;;;;;;;16.35;14.40;;;;;;;15.98;85.72;99485.23;1726821;80;21042;-61
2021/09/12 00:55:50;;;;;;;15.88;14.05;;;;;;;16.00;85.88;99485.97;1719147;80;21081;-61
2021/09/12 00:58:18;;;;;;;20.15;14.60;;;;;;;16.02;85.97;99486.67;1749080;80;20879;-61
2021/09/12 01:00:45;;;;;;;15.58;13.98;;;;;;;16.04;85.95;99495.31;1752501;80;21460;-62
2021/09/12 01:03:12;;;;;;;16.10;14.38;;;;;;;16.03;85.88;99491.01;1750781;80;21659;-61
2021/09/12 01:05:39;;;;;;;17.00;15.13;;;;;;;16.01;85.93;99490.27;1757368;80;20990;-61
2021/09/12 01:08:07;;;;;;;17.05;15.03;;;;;;;16.04;86.11;99497.95;1754157;80;21168;-61
2021/09/12 01:10:35;;;;;;;16.10;14.33;;;;;;;16.08;86.16;99496.78;1755937;80;21049;-61
2021/09/12 01:13:02;;;;;;;16.50;14.78;;;;;;;16.08;86.10;99492.83;1712195;82;20955;-61
2021/09/12 01:15:28;;;;;;;18.12;14.78;;;;;;;16.08;86.09;99483.61;1741191;80;20875;-61
2021/09/12 01:17:55;;;;;;;18.27;15.38;;;;;;;16.09;86.13;99483.97;1739427;81;20966;-62
2021/09/12 01:20:22;;;;;;;15.67;14.13;;;;;;;16.09;86.19;99482.65;1746302;81;22105;-61
2021/09/12 01:22:49;;;;;;;18.02;14.98;;;;;;;16.10;86.14;99481.69;1745502;80;20904;-62
2021/09/12 01:25:17;;;;;;;16.35;14.68;;;;;;;16.07;86.10;99481.91;1745286;80;21424;-61
2021/09/12 01:27:43;;;;;;;;;;;;;;;16.03;86.13;99484.42;1743536;80;21462;-61
2021/09/12 01:30:11;;;;;;;20.05;15.43;;;;;;;15.99;86.23;99476.37;1743758;80;20215;-62
2021/09/12 01:32:38;;;;;;;16.62;14.83;;;;;;;15.95;86.12;99480.20;1743284;81;21103;-61
2021/09/12 01:35:06;;;;;;;19.10;15.43;;;;;;;15.91;86.21;99481.36;1740191;80;20939;-62
2021/09/12 01:37:33;;;;;;;17.85;15.38;;;;;;;15.89;86.36;99481.00;1745133;80;21155;-61
2021/09/12 01:39:59;;;;;;;22.85;15.50;;;;;;;15.91;86.44;99478.72;1740526;81;20949;-61
2021/09/12 01:42:26;;;;;;;20.20;15.32;;;;;;;15.93;86.47;99486.04;1742516;81;20962;-61
2021/09/12 01:44:53;;;;;;;16.50;14.73;;;;;;;15.92;86.43;99483.05;1742142;80;21102;-61
2021/09/12 01:47:19;;;;;;;28.03;16.00;;;;;;;15.91;86.49;99483.53;1741002;80;20939;-61
2021/09/12 01:49:46;;;;;;;26.17;15.78;;;;;;;15.92;86.33;99489.64;1740510;80;21462;-62
2021/09/12 01:52:15;;;;;;;18.23;16.32;;;;;;;15.91;86.54;99486.17;1744611;81;21031;-62
2021/09/12 01:54:42;;;;;;;17.25;14.95;;;;;;;15.89;86.59;99486.27;1745085;81;21970;-62
2021/09/12 01:57:09;;;;;;;;;;;;;;;15.89;86.61;99484.95;1711728;81;21893;-61
2021/09/12 01:59:35;;;;;;;18.35;14.90;;;;;;;15.89;86.71;99495.97;1746626;80;28112;-61
2021/09/12 02:02:02;;;;;;;17.10;15.30;;;;;;;15.88;86.76;99491.18;1743472;80;20943;-61
2021/09/12 02:04:29;;;;;;;18.23;15.00;;;;;;;15.87;86.70;99492.11;1745675;80;20920;-61
2021/09/12 02:06:56;;;;;;;16.55;14.85;;;;;;;15.86;86.69;99486.50;1747526;81;20892;-61
2021/09/12 02:09:26;;;;;;;18.57;15.68;;;;;;;15.85;86.77;99486.14;1747720;81;21124;-61
2021/09/12 02:11:52;;;;;;;16.73;14.93;;;;;;;15.86;86.81;99485.17;1741661;80;21000;-62
2021/09/12 02:14:18;;;;;;;16.85;14.60;;;;;;;15.86;86.81;99476.45;1740662;80;20893;-62
2021/09/12 02:16:45;;;;;;;20.70;14.73;;;;;;;15.85;86.80;99478.24;1741009;81;20907;-61
2021/09/12 02:19:12;;;;;;;17.15;13.45;;;;;;;15.84;86.83;99478.34;1737766;81;20940;-61
2021/09/12 02:21:38;;;;;;;17.37;14.17;;;;;;;15.80;86.73;99472.95;1746551;81;21039;-62
2021/09/12 02:24:05;;;;;;;19.23;13.70;;;;;;;15.77;86.85;99467.43;1739677;80;20911;-62
2021/09/12 02:26:32;;;;;;;20.62;14.38;;;;;;;15.76;86.83;99470.99;1744813;81;20856;-62
2021/09/12 02:28:58;;;;;;;23.13;14.03;;;;;;;15.73;86.78;99464.64;1744223;81;20934;-62
2021/09/12 02:31:25;;;;;;;27.90;13.38;;;;;;;15.69;86.77;99461.88;1743849;80;21169;-62
2021/09/12 02:33:51;;;;;;;18.00;11.87;;;;;;;15.67;86.87;99458.48;1744536;81;21051;-62
2021/09/12 02:36:18;;;;;;;43.37;13.13;;;;;;;15.65;86.80;99456.42;1736499;80;21082;-61
2021/09/12 02:38:44;;;;;;;34.80;13.50;;;;;;;15.56;87.04;99458.41;1739553;81;20967;-61
2021/09/12 02:41:11;;;;;;;37.30;13.30;;;;;;;15.56;87.04;99458.41;1746699;80;21306;-61
2021/09/12 02:43:39;;;;;;;64.63;13.03;;;;;;;15.57;87.10;99454.82;1742938;80;21445;-62
2021/09/12 02:46:06;;;;;;;65.60;13.22;;;;;;;15.59;87.07;99459.50;1742638;81;21096;-61
2021/09/12 02:48:33;;;;;;;48.00;11.75;;;;;;;15.60;87.14;99451.97;1741070;81;21143;-61
2021/09/12 02:50:59;;;;;;;47.65;12.75;;;;;;;15.57;86.98;99452.19;1743685;81;20947;-61
2021/09/12 02:53:26;;;;;;;74.22;13.70;;;;;;;15.57;87.08;99454.82;1747442;81;20970;-62
2021/09/12 02:55:52;;;;;;;23.17;12.07;;;;;;;15.58;87.21;99451.26;1742130;80;21442;-62
2021/09/12 02:58:19;;;;;;;44.67;13.10;;;;;;;15.61;87.21;99458.92;1744162;81;21377;-61
2021/09/12 03:00:47;;;;;;;27.67;11.88;;;;;;;15.58;87.08;99457.36;1715165;82;20871;-60
2021/09/12 03:03:13;;;;;;;38.48;12.47;;;;;;;15.55;87.13;99452.80;1742452;81;21375;-61
2021/09/12 03:05:40;;;;;;;37.03;12.35;;;;;;;15.52;87.10;99454.34;1718782;81;20997;-62
2021/09/12 03:08:07;;;;;;;40.60;12.87;;;;;;;15.51;87.19;99460.05;1744728;81;20948;-61
2021/09/12 03:10:34;;;;;;;35.20;12.58;;;;;;;15.52;87.32;99460.91;1740001;81;21127;-61
2021/09/12 03:13:01;;;;;;;14.50;12.40;;;;;;;15.53;87.36;99470.00;1733065;80;20952;-61
2021/09/12 03:15:28;;;;;;;20.32;12.28;;;;;;;15.55;87.45;99473.84;1740017;80;20946;-62
2021/09/12 03:17:54;;;;;;;18.00;12.03;;;;;;;15.59;87.58;99473.98;1736407;80;20955;-61
2021/09/12 03:20:21;;;;;;;16.95;11.75;;;;;;;15.59;87.49;99471.34;1737951;80;20948;-61
2021/09/12 03:22:48;;;;;;;13.38;12.07;;;;;;;15.57;87.42;99468.84;1742967;80;21039;-61
2021/09/12 03:25:14;;;;;;;12.78;11.40;;;;;;;15.58;87.60;99474.94;1737084;80;20954;-61
2021/09/12 03:27:41;;;;;;;13.65;12.30;;;;;;;15.58;87.59;99472.31;1749557;80;20863;-61
2021/09/12 03:30:09;;;;;;;12.90;11.68;;;;;;;15.59;87.68;99468.72;1735881;80;20955;-62
2021/09/12 03:32:35;;;;;;;;;;;;;;;15.65;87.94;99470.91;1741818;80;21006;-61
2021/09/12 03:35:02;;;;;;;12.33;11.22;;;;;;;15.68;87.87;99464.12;1739430;80;21260;-62
2021/09/12 03:37:29;;;;;;;13.45;12.05;;;;;;;15.72;87.96;99469.55;1736135;80;20897;-61
2021/09/12 03:39:55;;;;;;;13.30;11.95;;;;;;;15.73;87.81;99467.27;1738932;80;20926;-61
2021/09/12 03:42:22;;;;;;;12.98;11.78;;;;;;;15.74;87.89;99458.45;1738846;80;20963;-61
2021/09/12 03:44:49;;;;;;;13.80;12.10;;;;;;;15.81;88.09;99454.88;1736305;80;21402;-62
2021/09/12 03:47:15;;;;;;;12.68;11.45;;;;;;;15.85;87.99;99450.60;1747298;80;21794;-61
2021/09/12 03:49:42;;;;;;;14.73;13.10;;;;;;;15.88;87.94;99454.33;1739181;80;21386;-61
2021/09/12 03:52:09;;;;;;;13.20;11.97;;;;;;;15.86;87.76;99461.48;1742464;80;20855;-62
2021/09/12 03:54:36;;;;;;;13.98;12.53;;;;;;;15.87;87.89;99447.36;1741773;80;20950;-61
2021/09/12 03:57:03;;;;;;;13.67;12.27;;;;;;;15.87;87.83;99452.63;1743497;80;20956;-62
2021/09/12 03:59:29;;;;;;;;;;;;;;;15.83;87.87;99448.55;1747040;80;21820;-61
2021/09/12 04:01:56;;;;;;;12.93;11.73;;;;;;;15.80;87.83;99451.41;1742175;79;20154;-62
2021/09/12 04:04:22;;;;;;;13.05;11.50;;;;;;;15.77;87.82;99449.00;1738831;80;20929;-61
2021/09/12 04:06:49;;;;;;;13.07;11.83;;;;;;;15.71;87.78;99441.56;1739834;80;20946;-61
2021/09/12 04:09:16;;;;;;;14.30;12.80;;;;;;;15.69;87.81;99437.36;1741296;80;20934;-62
2021/09/12 04:11:43;;;;;;;13.27;11.97;;;;;;;15.68;87.91;99433.86;1743443;80;20995;-61
2021/09/12 04:14:09;;;;;;;14.30;12.15;;;;;;;15.67;87.99;99434.79;1736785;80;21569;-61
2021/09/12 04:16:36;;;;;;;12.95;11.53;;;;;;;15.66;87.92;99427.86;1746606;80;20919;-61
2021/09/12 04:19:03;;;;;;;13.93;12.30;;;;;;;15.64;88.00;99429.75;1752334;80;20954;-62
2021/09/12 04:21:29;;;;;;;13.85;11.65;;;;;;;15.66;88.13;99430.49;1746477;80;21107;-62
2021/09/12 04:23:56;;;;;;;12.93;11.63;;;;;;;15.68;88.12;99424.65;1746605;80;21046;-61
2021/09/12 04:26:23;;;;;;;12.88;11.57;;;;;;;15.68;88.12;99428.59;1753974;80;21472;-61
2021/09/12 04:28:49;;;;;;;13.53;12.13;;;;;;;15.68;88.09;99432.55;1750827;80;21463;-62
2021/09/12 04:31:16;;;;;;;13.13;11.83;;;;;;;15.70;88.24;99424.55;1748168;80;20892;-61
2021/09/12 04:33:43;;;;;;;12.77;11.57;;;;;;;15.72;88.29;99427.44;1754756;80;21009;-61
2021/09/12 04:36:09;;;;;;;12.40;11.17;;;;;;;15.77;88.35;99430.58;1748132;80;22608;-62
2021/09/12 04:38:36;;;;;;;12.28;11.08;;;;;;;15.80;88.23;99432.15;1745164;80;20923;-63
2021/09/12 04:41:03;;;;;;;11.70;10.58;;;;;;;15.79;88.04;99428.65;1753731;80;20981;-60
2021/09/12 04:43:29;;;;;;;10.95;9.88;;;;;;;15.74;87.94;99433.44;1751787;80;21469;-61
2021/09/12 04:45:56;;;;;;;11.83;9.97;;;;;;;15.72;87.98;99429.23;1746448;80;20893;-63
2021/09/12 04:48:31;;;;;;;10.78;9.78;;;;;;;15.72;88.07;99431.87;1748483;80;21126;-60
2021/09/12 04:50:57;;;;;;;9.78;8.78;;;;;;;15.70;88.02;99434.59;1752732;80;20910;-60
2021/09/12 04:53:24;;;;;;;9.83;8.83;;;;;;;15.69;88.12;99428.98;1744471;80;21056;-61
2021/09/12 04:55:51;;;;;;;10.13;9.00;;;;;;;15.70;88.18;99428.02;1750553;80;21515;-61
2021/09/12 04:58:17;;;;;;;10.00;8.73;;;;;;;15.72;88.26;99429.23;1750634;80;20910;-61
2021/09/12 05:00:44;;;;;;;10.60;9.50;;;;;;;15.73;88.34;99430.42;1750912;80;21100;-61
2021/09/12 05:03:11;;;;;;;11.30;8.83;;;;;;;15.74;88.33;99433.44;1717631;80;23829;-61
2021/09/12 05:05:37;;;;;;;9.27;7.97;;;;;;;15.79;88.41;99438.34;1754923;80;20945;-61
2021/09/12 05:08:05;;;;;;;12.60;9.30;;;;;;;15.82;88.45;99433.72;1751550;80;21236;-61
2021/09/12 05:10:32;;;;;;;9.85;8.95;;;;;;;15.84;88.50;99435.73;1750064;80;20875;-61
2021/09/12 05:12:59;;;;;;;9.85;8.93;;;;;;;15.89;88.63;99428.83;1737162;80;21444;-61
2021/09/12 05:15:26;;;;;;;13.25;8.03;;;;;;;15.94;88.54;99425.86;1735666;81;20972;-61
2021/09/12 05:17:52;;;;;;;9.90;8.90;;;;;;;15.97;88.56;99425.63;1734754;81;20946;-61
2021/09/12 05:20:19;;;;;;;9.65;8.75;;;;;;;15.98;88.50;99425.50;1737137;81;21022;-61
2021/09/12 05:22:46;;;;;;;9.65;8.23;;;;;;;16.01;88.55;99427.08;1735729;81;20915;-61
2021/09/12 05:25:12;;;;;;;10.57;8.80;;;;;;;16.07;88.73;99421.34;1738889;81;21049;-61
2021/09/12 05:27:39;;;;;;;9.68;8.80;;;;;;;16.16;88.86;99432.53;1738557;81;21607;-61
2021/09/12 05:30:08;;;;;;;10.10;9.03;;;;;;;16.25;88.85;99435.78;1738277;81;20922;-63
2021/09/12 05:32:36;;;;;;;9.78;8.68;;;;;;;16.29;88.71;99431.95;1728150;81;20913;-65
2021/09/12 05:35:07;;;;;;;9.65;8.75;;;;;;;16.39;88.88;99427.31;1637666;85;20952;-62
2021/09/12 05:37:34;;;;;;;11.10;8.70;;;;;;;16.47;88.82;99428.89;1665107;85;21074;-61
2021/09/12 05:40:01;;;;;;;10.30;9.28;;;;;;;16.56;88.84;99425.55;1691490;84;21484;-62
2021/09/12 05:42:28;;;;;;;8.53;7.62;;;;;;;16.64;88.75;99424.96;1732752;81;21453;-62
2021/09/12 05:44:55;;;;;;;9.93;9.03;;;;;;;16.67;88.57;99424.72;1735704;80;21589;-62
2021/09/12 05:47:21;;;;;;;10.20;8.38;;;;;;;16.73;88.78;99425.08;1731716;80;20947;-62
2021/09/12 05:49:48;;;;;;;9.93;8.13;;;;;;;16.82;88.87;99426.67;1731928;81;21471;-61
2021/09/12 05:52:15;;;;;;;8.60;7.70;;;;;;;16.89;88.69;99431.84;1730303;82;20944;-61
2021/09/12 05:54:41;;;;;;;9.30;8.35;;;;;;;16.91;88.67;99429.90;1695069;82;20946;-62
2021/09/12 05:57:08;;;;;;;9.15;8.15;;;;;;;16.96;88.76;99439.13;1728594;81;21023;-62
2021/09/12 05:59:46;;;;;;;9.03;7.87;;;;;;;17.03;88.74;99428.09;1732279;81;20968;-61
2021/09/12 06:02:09;;;;;;;8.25;7.37;;;;;;;17.08;88.77;99432.05;1724411;80;20895;-64
2021/09/12 06:04:35;;;;;;;9.20;8.25;;;;;;;17.16;88.78;99424.37;1733796;81;20920;-63
2021/09/12 06:07:03;;;;;;;9.23;8.33;;;;;;;17.22;88.53;99430.95;1731466;81;20950;-62
2021/09/12 06:09:29;;;;;;;9.30;8.38;;;;;;;17.23;88.34;99422.10;1734409;81;20916;-61
2021/09/12 06:11:56;;;;;;;8.68;7.87;;;;;;;17.23;88.35;99425.58;1726770;81;21464;-61
2021/09/12 06:14:23;;;;;;;8.35;7.65;;;;;;;17.26;88.33;99431.58;1731559;81;21903;-61
2021/09/12 06:16:50;;;;;;;8.95;7.30;;;;;;;17.26;88.27;99431.58;1732993;80;20949;-61
2021/09/12 06:19:17;;;;;;;8.55;7.78;;;;;;;17.25;88.28;99428.08;1735502;80;20956;-62
2021/09/12 06:21:44;;;;;;;8.58;7.78;;;;;;;17.35;88.52;99431.66;1732188;81;20911;-62
2021/09/12 06:24:11;;;;;;;10.03;8.58;;;;;;;17.45;88.59;99434.42;1733651;81;21463;-60
2021/09/12 06:26:37;;;;;;;9.43;8.38;;;;;;;17.61;88.58;99434.84;1732561;82;21085;-60
2021/09/12 06:29:04;;;;;;;9.05;8.15;;;;;;;17.67;88.39;99426.45;1736585;81;20983;-62
2021/09/12 06:31:31;;;;;;;11.18;8.43;;;;;;;17.76;88.48;99430.13;1735653;81;21353;-61
2021/09/12 06:33:57;;;;;;;11.35;9.63;;;;;;;17.86;88.53;99431.55;1732930;82;21047;-61
2021/09/12 06:36:24;;;;;;;10.03;8.68;;;;;;;18.06;88.85;99436.05;1732359;80;21147;-61
2021/09/12 06:38:51;;;;;;;11.08;9.93;;;;;;;18.24;88.60;99438.13;1731697;81;21446;-61
2021/09/12 06:41:17;;;;;;;10.10;9.13;;;;;;;18.40;88.58;99436.33;1732667;81;20936;-62
2021/09/12 06:43:44;;;;;;;11.80;9.68;;;;;;;18.53;88.27;99437.81;1735035;81;20911;-62
2021/09/12 06:46:10;;;;;;;11.00;9.80;;;;;;;18.61;87.99;99433.70;1738507;81;21477;-61
2021/09/12 06:48:37;;;;;;;10.53;9.03;;;;;;;18.59;87.64;99442.23;1731131;81;20916;-61
2021/09/12 06:51:04;;;;;;;9.88;8.85;;;;;;;18.58;87.86;99443.21;1736274;81;21076;-61
2021/09/12 06:53:30;;;;;;;10.40;9.30;;;;;;;18.67;88.10;99441.09;1732599;82;21031;-61
2021/09/12 06:55:59;;;;;;;11.05;9.75;;;;;;;18.71;87.78;99442.53;1729724;81;20956;-62
2021/09/12 06:58:25;;;;;;;10.93;9.13;;;;;;;18.80;87.99;99441.77;1732072;81;20969;-61
2021/09/12 07:00:53;;;;;;;13.43;9.03;;;;;;;18.97;88.17;99433.20;1734361;82;20908;-61
2021/09/12 07:03:20;;;;;;;10.72;9.63;;;;;;;19.15;87.96;99436.04;1726937;81;21040;-62
2021/09/12 07:05:47;;;;;;;11.10;9.33;;;;;;;19.35;87.88;99442.72;1727617;80;20864;-62
2021/09/12 07:08:14;;;;;;;10.15;9.15;;;;;;;19.35;87.13;99433.45;1704315;82;20932;-62
2021/09/12 07:10:40;;;;;;;13.05;9.78;;;;;;;19.35;87.21;99435.64;1723959;81;20923;-62
2021/09/12 07:13:07;;;;;;;9.68;8.55;;;;;;;19.43;87.19;99436.27;1740785;80;20968;-61
2021/09/12 07:15:35;;;;;;;13.25;9.35;;;;;;;19.47;87.12;99438.17;1745933;80;21105;-61
2021/09/12 07:18:01;;;;;;;11.95;8.75;;;;;;;19.54;87.24;99437.96;1750804;80;20915;-62
2021/09/12 07:20:28;;;;;;;11.18;8.23;;;;;;;19.55;86.83;99439.63;1748409;80;20867;-61
2021/09/12 07:22:54;;;;;;;10.63;9.38;;;;;;;19.51;86.69;99439.06;1752205;80;20935;-61
2021/09/12 07:25:21;;;;;;;13.80;9.45;;;;;;;19.51;86.69;99439.06;1750530;80;21057;-62
2021/09/12 07:27:48;;;;;;;10.60;9.40;;;;;;;19.54;86.73;99442.77;1752215;80;20949;-61
2021/09/12 07:30:15;;;;;;;10.85;9.05;;;;;;;19.60;86.63;99438.73;1716019;81;20929;-62
2021/09/12 07:32:42;;;;;;;;;;;;;;;19.61;86.56;99447.05;1757598;80;20974;-62
2021/09/12 07:35:10;;;;;;;10.70;8.70;;;;;;;19.61;86.17;99445.72;1748916;80;20098;-61
2021/09/12 07:37:37;;;;;;;12.28;9.60;;;;;;;19.61;86.44;99443.91;1744126;80;20971;-62
2021/09/12 07:40:05;;;;;;;11.38;9.48;;;;;;;19.76;86.33;99441.72;1738018;80;21015;-61
2021/09/12 07:42:32;;;;;;;10.75;9.60;;;;;;;19.86;86.13;99446.55;1745344;80;20944;-61
2021/09/12 07:44:59;;;;;;;12.00;9.35;;;;;;;20.04;86.23;99443.20;1718380;80;22430;-61
2021/09/12 07:47:26;;;;;;;9.13;8.20;;;;;;;20.12;85.60;99449.96;1746163;80;20950;-61
2021/09/12 07:49:52;;;;;;;11.78;8.98;;;;;;;20.42;86.02;99450.29;1754584;80;20948;-61
2021/09/12 07:52:19;;;;;;;10.13;9.13;;;;;;;20.79;86.13;99455.67;1746613;80;21029;-61
2021/09/12 07:54:46;;;;;;;10.98;9.83;;;;;;;20.95;84.97;99456.89;1752658;80;20918;-60
2021/09/12 07:57:12;;;;;;;10.38;9.38;;;;;;;20.85;84.57;99449.44;1756799;80;20983;-60
2021/09/12 07:59:39;;;;;;;10.38;9.38;;;;;;;20.67;83.99;99458.16;1753303;80;20900;-60
2021/09/12 08:02:05;;;;;;;10.20;9.10;;;;;;;20.72;84.34;99450.58;1757816;80;20955;-61
2021/09/12 08:04:32;;;;;;;10.90;9.80;;;;;;;20.78;84.19;99447.84;1741747;80;21041;-63
2021/09/12 08:07:01;;;;;;;11.43;9.33;;;;;;;20.96;84.43;99453.24;1744361;80;20947;-62
2021/09/12 08:09:30;;;;;;;10.10;9.10;;;;;;;21.07;83.72;99453.06;1744859;80;20888;-63
2021/09/12 08:11:56;;;;;;;10.30;9.30;;;;;;;21.17;84.00;99452.53;1744290;80;22020;-62
2021/09/12 08:14:23;;;;;;;10.20;9.25;;;;;;;21.33;83.90;99448.39;1721201;81;20903;-62
2021/09/12 08:16:51;;;;;;;10.60;9.45;;;;;;;21.43;83.42;99447.89;1724867;81;21118;-60
2021/09/12 08:19:18;;;;;;;11.38;9.48;;;;;;;21.52;83.03;99446.98;1721466;81;20911;-61
2021/09/12 08:21:44;;;;;;;11.68;8.83;;;;;;;21.60;83.13;99447.08;1695948;83;20910;-61
2021/09/12 08:24:11;;;;;;;11.50;8.88;;;;;;;21.67;82.44;99444.14;1764226;79;20892;-62
2021/09/12 08:26:38;;;;;;;11.43;8.85;;;;;;;21.62;82.08;99446.44;1764212;79;20921;-61
2021/09/12 08:29:05;;;;;;;9.13;8.23;;;;;;;21.57;82.18;99443.39;1763504;79;21440;-61
2021/09/12 08:31:32;;;;;;;9.68;8.73;;;;;;;21.66;82.36;99450.45;1765336;79;20933;-62
2021/09/12 08:33:58;;;;;;;9.23;8.33;;;;;;;21.66;82.02;99457.09;1763047;79;20946;-61
2021/09/12 08:36:25;;;;;;;10.95;8.90;;;;;;;21.74;81.97;99456.36;1761538;79;20911;-61
2021/09/12 08:38:52;;;;;;;11.22;8.98;;;;;;;21.79;81.82;99458.08;1762023;79;20943;-62
2021/09/12 08:41:19;;;;;;;12.45;8.93;;;;;;;21.77;81.50;99455.22;1760061;79;26934;-61
2021/09/12 08:43:47;;;;;;;12.45;9.35;;;;;;;21.59;80.95;99457.84;1739999;79;21016;-61
2021/09/12 08:46:16;;;;;;;9.58;8.58;;;;;;;21.33;80.70;99455.86;1739079;79;21401;-61
2021/09/12 08:48:44;;;;;;;12.18;9.03;;;;;;;21.05;80.42;99459.00;1764354;79;20963;-61
2021/09/12 08:51:11;;;;;;;9.65;8.60;;;;;;;20.77;80.55;99457.63;1759217;79;20955;-61
2021/09/12 08:53:38;;;;;;;9.50;8.10;;;;;;;20.58;80.43;99460.31;1761865;79;22248;-61
2021/09/12 08:56:05;;;;;;;10.70;7.97;;;;;;;20.43;80.50;99459.91;1768849;79;20909;-62
2021/09/12 08:58:32;;;;;;;8.88;8.05;;;;;;;20.29;80.53;99461.17;1734699;79;20915;-61
2021/09/12 09:01:00;;;;;;;10.40;8.43;;;;;;;20.32;80.70;99450.28;1762061;79;21595;-61
2021/09/12 09:03:38;;;;;;;11.53;8.23;;;;;;;20.48;80.81;99451.53;1728809;79;21522;-61
2021/09/12 09:06:17;;;;;;;8.78;7.83;;;;;;;20.81;81.16;99453.34;1757908;79;21026;-61
2021/09/12 09:08:56;;;;;;;9.55;8.60;;;;;;;21.19;80.92;99451.87;1759949;79;20882;-62
2021/09/12 09:11:39;;;;;;;9.55;8.45;;;;;;;21.52;80.49;99454.13;1764960;79;21010;-61
2021/09/12 09:14:19;;;;;;;8.90;7.90;;;;;;;21.82;80.46;99447.64;1744198;79;20920;-62
2021/09/12 09:16:49;;;;;;;7.75;7.05;;;;;;;21.88;79.58;99445.70;1724955;81;20947;-61
2021/09/12 09:19:17;;;;;;;9.15;7.33;;;;;;;21.78;79.36;99446.25;1729617;81;21055;-62
2021/09/12 09:21:47;;;;;;;11.90;8.15;;;;;;;21.64;78.96;99448.93;1726636;81;20894;-62
2021/09/12 09:24:25;;;;;;;10.80;7.28;;;;;;;21.35;78.48;99445.10;1726717;81;20937;-61
2021/09/12 09:27:04;;;;;;;8.78;7.25;;;;;;;21.02;78.38;99447.34;1726958;81;20969;-62
2021/09/12 09:29:38;;;;;;;8.65;7.75;;;;;;;20.75;78.47;99450.32;1730750;81;20998;-62
2021/09/12 09:32:14;;;;;;;9.20;8.15;;;;;;;20.55;78.51;99452.65;1694794;82;21204;-62
2021/09/12 09:34:52;;;;;;;9.75;7.37;;;;;;;20.41;78.60;99453.06;1725982;81;20904;-62
2021/09/12 09:37:19;;;;;;;;;;;;;;;20.27;78.35;99456.49;1722239;81;20917;-62
2021/09/12 09:39:52;;;;;;;7.50;6.72;;;;;;;20.15;78.19;99452.33;1725347;81;20125;-62
2021/09/12 09:42:39;;;;;;;7.90;7.17;;;;;;;20.11;78.62;99449.63;1723452;81;20919;-62
2021/09/12 09:45:16;;;;;;;10.45;7.42;;;;;;;20.29;78.88;99455.88;1727999;81;21108;-62
2021/09/12 09:47:49;;;;;;;8.70;7.08;;;;;;;20.61;78.92;99457.38;1724701;81;20982;-62
2021/09/12 09:50:24;;;;;;;11.75;6.87;;;;;;;20.77;78.47;99449.66;1731565;81;20888;-62
2021/09/12 09:52:55;;;;;;;10.30;7.00;;;;;;;20.96;78.21;99450.59;1727979;81;20915;-61
2021/09/12 09:55:25;;;;;;;8.13;6.75;;;;;;;21.11;78.27;99449.11;1725032;81;21080;-61
2021/09/12 09:57:54;;;;;;;11.22;8.10;;;;;;;21.31;78.24;99446.36;1726920;81;21779;-62
2021/09/12 10:00:24;;;;;;;11.18;7.17;;;;;;;21.48;77.96;99455.39;1684791;83;21003;-62
2021/09/12 10:02:50;;;;;;;6.87;6.15;;;;;;;21.45;77.35;99453.86;1726223;81;20949;-61
2021/09/12 10:05:18;;;;;;;12.47;6.45;;;;;;;21.32;77.41;99453.37;1728937;81;20876;-62
2021/09/12 10:07:44;;;;;;;;;;;;;;;21.21;77.09;99452.57;1727504;81;20936;-62
2021/09/12 10:10:13;;;;;;;8.90;7.55;;;;;;;21.02;77.07;99450.00;1726063;81;21066;-62
2021/09/12 10:12:53;;;;;;;8.23;6.60;;;;;;;20.90;77.14;99452.50;1725405;81;20916;-62
2021/09/12 10:15:27;;;;;;;9.15;6.12;;;;;;;20.87;77.17;99452.80;1737920;80;20979;-62
2021/09/12 10:17:54;;;;;;;8.80;6.33;;;;;;;20.91;77.05;99458.14;1738540;81;20885;-62
2021/09/12 10:20:25;;;;;;;8.58;6.65;;;;;;;20.83;76.76;99450.07;1741976;81;20954;-61
2021/09/12 10:23:00;;;;;;;7.95;5.97;;;;;;;20.83;77.03;99453.55;1739578;81;21436;-62
2021/09/12 10:25:31;;;;;;;6.85;6.17;;;;;;;20.88;77.01;99450.48;1737119;81;20927;-62
2021/09/12 10:28:06;;;;;;;7.15;6.17;;;;;;;21.02;77.21;99459.29;1744117;80;20887;-62
2021/09/12 10:30:38;;;;;;;7.95;6.35;;;;;;;21.24;77.12;99456.25;1708438;81;21655;-62
2021/09/12 10:33:16;;;;;;;6.75;6.15;;;;;;;21.46;76.97;99452.90;1746152;80;21527;-62
2021/09/12 10:35:51;;;;;;;9.15;7.40;;;;;;;21.54;76.67;99451.66;1735685;80;21652;-62
2021/09/12 10:38:36;;;;;;;8.28;6.55;;;;;;;21.49;76.32;99450.44;1705468;82;20919;-62
2021/09/12 10:41:07;;;;;;;6.87;6.20;;;;;;;21.44;76.36;99444.23;1749643;81;20906;-62
2021/09/12 10:43:41;;;;;;;7.85;5.85;;;;;;;21.48;76.30;99449.58;1743681;81;21112;-62
2021/09/12 10:46:13;;;;;;;8.35;5.92;;;;;;;21.42;75.90;99443.05;1743035;80;20958;-61
2021/09/12 10:48:53;;;;;;;8.10;5.95;;;;;;;21.48;76.30;99449.58;1743760;80;21586;-62
2021/09/12 10:51:25;;;;;;;7.72;6.10;;;;;;;21.62;76.52;99437.14;1739341;81;20950;-62
2021/09/12 10:54:02;;;;;;;7.10;5.97;;;;;;;21.86;76.29;99441.02;1740771;81;20933;-61
2021/09/12 10:56:31;;;;;;;9.03;7.35;;;;;;;22.01;75.76;99438.66;1746514;80;20921;-62
2021/09/12 10:59:12;;;;;;;6.20;5.60;;;;;;;22.13;75.89;99434.28;1745534;81;20914;-62
2021/09/12 11:01:49;;;;;;;9.80;5.83;;;;;;;22.33;75.96;99428.82;1743593;81;21060;-62
2021/09/12 11:04:18;;;;;;;6.65;4.85;;;;;;;22.49;75.71;99426.28;1738272;81;20930;-62
2021/09/12 11:06:49;;;;;;;8.75;4.95;;;;;;;22.49;75.50;99426.28;1750053;81;21392;-62
2021/09/12 11:09:23;;;;;;;4.67;4.05;;;;;;;22.54;75.10;99433.27;1743188;80;20944;-62
2021/09/12 11:11:58;;;;;;;5.90;4.67;;;;;;;22.58;75.06;99436.48;1739668;81;20934;-61
2021/09/12 11:14:27;;;;;;;5.12;4.53;;;;;;;22.59;74.84;99424.00;1723687;82;20978;-62
2021/09/12 11:16:54;;;;;;;6.62;4.92;;;;;;;22.70;75.04;99426.40;1718649;81;20898;-62
2021/09/12 11:19:20;;;;;;;;;;;;;;;22.86;74.95;99429.16;1719957;81;20956;-61
2021/09/12 11:21:51;;;;;;;6.15;4.85;;;;;;;23.08;74.81;99425.61;1720456;81;20431;-61
2021/09/12 11:24:26;;;;;;;5.78;4.75;;;;;;;23.26;74.56;99419.70;1724353;81;21000;-62
2021/09/12 11:26:57;;;;;;;5.00;3.50;;;;;;;23.32;74.26;99419.05;1712099;81;21188;-61
2021/09/12 11:29:34;;;;;;;5.30;4.03;;;;;;;23.28;73.24;99420.38;1717855;81;21477;-61
2021/09/12 11:32:17;;;;;;;4.35;3.90;;;;;;;22.94;73.33;99411.89;1718455;81;20948;-61